sensor_id;sensor_type;location;lat;lon;timestamp;pressure;altitude;pressure_sealevel;temperature;humidity
20013;BME280;10167;42.852;23.042;2023-01-31T00:00:54;94452.44;;;-0.21;100.00
20013;BME280;10167;42.852;23.042;2023-01-31T00:03:43;94454.09;;;-0.34;100.00
20013;BME280;10167;42.852;23.042;2023-01-31T00:06:34;94462.47;;;-0.18;100.00
20013;BME280;10167;42.852;23.042;2023-01-31T00:09:24;94449.13;;;-0.15;100.00
20013;BME280;10167;42.852;23.042;2023-01-31T00:12:11;94455.56;;;-0.11;100.00
20013;BME280;10167;42.852;23.042;2023-01-31T00:15:01;94453.75;;;-0.10;100.00
20013;BME280;10167;42.852;23.042;2023-01-31T00:17:49;94455.38;;;-0.09;100.00
20013;BME280;10167;42.852;23.042;2023-01-31T00:20:37;94437.72;;;-0.14;100.00
20013;BME280;10167;42.852;23.042;2023-01-31T00:23:24;94432.94;;;-0.10;100.00
20013;BME280;10167;42.852;23.042;2023-01-31T00:26:13;94422.81;;;-0.20;100.00
20013;BME280;10167;42.852;23.042;2023-01-31T00:29:04;94422.28;;;-0.15;100.00
20013;BME280;10167;42.852;23.042;2023-01-31T00:31:53;94421.03;;;-0.19;100.00
20013;BME280;10167;42.852;23.042;2023-01-31T00:34:40;94409.22;;;-0.37;100.00
20013;BME280;10167;42.852;23.042;2023-01-31T00:37:30;94417.28;;;-0.31;100.00
20013;BME280;10167;42.852;23.042;2023-01-31T00:40:19;94412.88;;;-0.31;100.00
20013;BME280;10167;42.852;23.042;2023-01-31T00:42:49;94434.16;;;-0.42;100.00
20013;BME280;10167;42.852;23.042;2023-01-31T00:45:17;94439.28;;;-0.34;100.00
20013;BME280;10167;42.852;23.042;2023-01-31T00:47:51;94446.72;;;-0.46;100.00
20013;BME280;10167;42.852;23.042;2023-01-31T00:50:21;94454.53;;;-0.46;100.00
20013;BME280;10167;42.852;23.042;2023-01-31T00:52:51;94445.91;;;-0.61;100.00
20013;BME280;10167;42.852;23.042;2023-01-31T00:55:20;94449.56;;;-0.55;100.00
20013;BME280;10167;42.852;23.042;2023-01-31T00:57:49;94450.38;;;-0.55;100.00
20013;BME280;10167;42.852;23.042;2023-01-31T01:00:19;94445.00;;;-0.53;100.00
20013;BME280;10167;42.852;23.042;2023-01-31T01:02:48;94451.31;;;-0.48;100.00
20013;BME280;10167;42.852;23.042;2023-01-31T01:05:19;94452.91;;;-0.47;100.00
20013;BME280;10167;42.852;23.042;2023-01-31T01:07:49;94445.00;;;-0.53;100.00
20013;BME280;10167;42.852;23.042;2023-01-31T01:10:18;94442.31;;;-0.45;100.00
20013;BME280;10167;42.852;23.042;2023-01-31T01:12:48;94441.44;;;-0.38;100.00
20013;BME280;10167;42.852;23.042;2023-01-31T01:15:18;94432.47;;;-0.35;100.00
20013;BME280;10167;42.852;23.042;2023-01-31T01:17:48;94432.88;;;-0.31;100.00
20013;BME280;10167;42.852;23.042;2023-01-31T01:20:20;94433.53;;;-0.29;100.00
20013;BME280;10167;42.852;23.042;2023-01-31T01:22:52;94432.88;;;-0.31;100.00
20013;BME280;10167;42.852;23.042;2023-01-31T01:25:22;94428.22;;;-0.21;100.00
20013;BME280;10167;42.852;23.042;2023-01-31T01:27:51;94455.03;;;-0.21;100.00
20013;BME280;10167;42.852;23.042;2023-01-31T01:30:20;94449.94;;;-0.14;100.00
20013;BME280;10167;42.852;23.042;2023-01-31T01:32:49;94447.31;;;-0.14;100.00
20013;BME280;10167;42.852;23.042;2023-01-31T01:35:20;94447.84;;;-0.19;100.00
20013;BME280;10167;42.852;23.042;2023-01-31T01:37:49;94447.75;;;-0.11;100.00
20013;BME280;10167;42.852;23.042;2023-01-31T01:40:18;94451.59;;;-0.07;100.00
20013;BME280;10167;42.852;23.042;2023-01-31T01:42:48;94442.63;;;-0.04;100.00
20013;BME280;10167;42.852;23.042;2023-01-31T01:45:17;94428.53;;;0.05;100.00
20013;BME280;10167;42.852;23.042;2023-01-31T01:47:50;94432.38;;;0.09;100.00
20013;BME280;10167;42.852;23.042;2023-01-31T01:50:25;94422.59;;;0.11;100.00
20013;BME280;10167;42.852;23.042;2023-01-31T01:52:58;94430.63;;;0.16;100.00
20013;BME280;10167;42.852;23.042;2023-01-31T01:55:33;94428.50;;;0.20;100.00
20013;BME280;10167;42.852;23.042;2023-01-31T01:58:08;94429.47;;;0.19;100.00
20013;BME280;10167;42.852;23.042;2023-01-31T02:00:37;94429.91;;;0.22;100.00
20013;BME280;10167;42.852;23.042;2023-01-31T02:03:08;94421.84;;;0.17;100.00
20013;BME280;10167;42.852;23.042;2023-01-31T02:05:41;94412.91;;;0.05;100.00
20013;BME280;10167;42.852;23.042;2023-01-31T02:08:13;94396.97;;;0.15;100.00
20013;BME280;10167;42.852;23.042;2023-01-31T02:10:47;94403.66;;;0.03;100.00
20013;BME280;10167;42.852;23.042;2023-01-31T02:13:18;94405.28;;;0.04;100.00
20013;BME280;10167;42.852;23.042;2023-01-31T02:15:47;94422.25;;;-0.01;100.00
20013;BME280;10167;42.852;23.042;2023-01-31T02:18:18;94423.31;;;0.05;100.00
20013;BME280;10167;42.852;23.042;2023-01-31T02:21:13;94429.78;;;0.09;100.00
20013;BME280;10167;42.852;23.042;2023-01-31T02:24:11;94427.84;;;0.18;100.00
20013;BME280;10167;42.852;23.042;2023-01-31T02:33:10;94429.28;;;0.20;100.00
20013;BME280;10167;42.852;23.042;2023-01-31T02:35:50;94444.53;;;0.23;100.00
20013;BME280;10167;42.852;23.042;2023-01-31T02:38:29;94461.53;;;0.19;100.00
20013;BME280;10167;42.852;23.042;2023-01-31T02:41:11;94469.97;;;0.21;100.00
20013;BME280;10167;42.852;23.042;2023-01-31T02:43:51;94469.00;;;0.08;100.00
20013;BME280;10167;42.852;23.042;2023-01-31T02:46:45;94471.78;;;0.06;100.00
20013;BME280;10167;42.852;23.042;2023-01-31T02:49:21;94470.56;;;-0.13;100.00
20013;BME280;10167;42.852;23.042;2023-01-31T02:52:19;94475.13;;;-0.15;100.00
20013;BME280;10167;42.852;23.042;2023-01-31T02:55:05;94465.78;;;-0.09;100.00
20013;BME280;10167;42.852;23.042;2023-01-31T02:57:53;94476.47;;;-0.04;100.00
20013;BME280;10167;42.852;23.042;2023-01-31T03:00:24;94482.22;;;-0.09;100.00
20013;BME280;10167;42.852;23.042;2023-01-31T03:02:53;94487.22;;;-0.07;100.00
20013;BME280;10167;42.852;23.042;2023-01-31T03:05:24;94484.63;;;-0.07;100.00
20013;BME280;10167;42.852;23.042;2023-01-31T03:07:55;94490.66;;;-0.07;100.00
20013;BME280;10167;42.852;23.042;2023-01-31T03:10:59;94486.06;;;-0.05;100.00
20013;BME280;10167;42.852;23.042;2023-01-31T03:13:39;94476.81;;;-0.07;100.00
20013;BME280;10167;42.852;23.042;2023-01-31T03:16:19;94496.66;;;0.09;100.00
20013;BME280;10167;42.852;23.042;2023-01-31T03:19:12;94488.03;;;0.08;100.00
20013;BME280;10167;42.852;23.042;2023-01-31T03:21:48;94489.38;;;0.04;100.00
20013;BME280;10167;42.852;23.042;2023-01-31T03:24:20;94494.03;;;0.09;100.00
20013;BME280;10167;42.852;23.042;2023-01-31T03:26:55;94492.78;;;0.05;100.00
20013;BME280;10167;42.852;23.042;2023-01-31T03:29:27;94485.34;;;0.02;100.00
20013;BME280;10167;42.852;23.042;2023-01-31T03:32:06;94501.50;;;-0.03;100.00
20013;BME280;10167;42.852;23.042;2023-01-31T03:34:38;94508.41;;;0.05;100.00
20013;BME280;10167;42.852;23.042;2023-01-31T03:37:16;94499.31;;;0.00;100.00
20013;BME280;10167;42.852;23.042;2023-01-31T03:39:55;94511.88;;;0.12;100.00
20013;BME280;10167;42.852;23.042;2023-01-31T03:42:33;94507.41;;;0.06;100.00
20013;BME280;10167;42.852;23.042;2023-01-31T03:45:09;94518.16;;;0.17;100.00
20013;BME280;10167;42.852;23.042;2023-01-31T03:47:42;94528.06;;;0.07;100.00
20013;BME280;10167;42.852;23.042;2023-01-31T03:50:16;94520.59;;;0.04;100.00
20013;BME280;10167;42.852;23.042;2023-01-31T03:52:53;94524.91;;;0.12;100.00
20013;BME280;10167;42.852;23.042;2023-01-31T03:55:26;94530.78;;;-0.01;100.00
20013;BME280;10167;42.852;23.042;2023-01-31T03:58:01;94528.06;;;0.07;100.00
20013;BME280;10167;42.852;23.042;2023-01-31T04:00:34;94530.03;;;0.05;100.00
20013;BME280;10167;42.852;23.042;2023-01-31T04:03:09;94533.50;;;0.12;100.00
20013;BME280;10167;42.852;23.042;2023-01-31T04:05:40;94524.03;;;0.05;100.00
20013;BME280;10167;42.852;23.042;2023-01-31T04:08:11;94540.72;;;0.10;100.00
20013;BME280;10167;42.852;23.042;2023-01-31T04:10:43;94523.56;;;0.01;100.00
20013;BME280;10167;42.852;23.042;2023-01-31T04:13:12;94522.56;;;0.02;100.00
20013;BME280;10167;42.852;23.042;2023-01-31T04:15:42;94526.19;;;-0.14;100.00
20013;BME280;10167;42.852;23.042;2023-01-31T04:18:11;94534.44;;;0.05;100.00
20013;BME280;10167;42.852;23.042;2023-01-31T04:20:40;94528.34;;;-0.03;100.00
20013;BME280;10167;42.852;23.042;2023-01-31T04:23:11;94527.88;;;-0.06;100.00
20013;BME280;10167;42.852;23.042;2023-01-31T04:25:40;94528.25;;;0.06;100.00
20013;BME280;10167;42.852;23.042;2023-01-31T04:28:09;94524.31;;;-0.05;100.00
20013;BME280;10167;42.852;23.042;2023-01-31T04:30:39;94526.97;;;0.02;100.00
20013;BME280;10167;42.852;23.042;2023-01-31T04:33:08;94533.97;;;0.01;100.00
20013;BME280;10167;42.852;23.042;2023-01-31T04:35:38;94538.28;;;0.09;100.00
20013;BME280;10167;42.852;23.042;2023-01-31T04:38:08;94540.53;;;-0.03;100.00
20013;BME280;10167;42.852;23.042;2023-01-31T04:40:38;94545.75;;;-0.03;100.00
20013;BME280;10167;42.852;23.042;2023-01-31T04:43:08;94545.41;;;0.00;100.00
20013;BME280;10167;42.852;23.042;2023-01-31T04:45:37;94539.28;;;-0.07;100.00
20013;BME280;10167;42.852;23.042;2023-01-31T04:48:06;94541.78;;;0.01;100.00
20013;BME280;10167;42.852;23.042;2023-01-31T04:50:37;94539.91;;;0.10;100.00
20013;BME280;10167;42.852;23.042;2023-01-31T04:53:06;94539.09;;;0.09;100.00
20013;BME280;10167;42.852;23.042;2023-01-31T04:55:37;94545.00;;;0.18;100.00
20013;BME280;10167;42.852;23.042;2023-01-31T04:58:07;94546.19;;;0.15;100.00
20013;BME280;10167;42.852;23.042;2023-01-31T05:00:38;94538.81;;;0.19;100.00
20013;BME280;10167;42.852;23.042;2023-01-31T05:03:07;94534.94;;;0.29;100.00
20013;BME280;10167;42.852;23.042;2023-01-31T05:05:37;94542.41;;;0.32;100.00
20013;BME280;10167;42.852;23.042;2023-01-31T05:08:06;94550.00;;;0.34;100.00
20013;BME280;10167;42.852;23.042;2023-01-31T05:10:35;94550.81;;;0.34;100.00
20013;BME280;10167;42.852;23.042;2023-01-31T05:13:06;94546.22;;;0.36;100.00
20013;BME280;10167;42.852;23.042;2023-01-31T05:15:36;94541.84;;;0.37;100.00
20013;BME280;10167;42.852;23.042;2023-01-31T05:18:06;94542.28;;;0.41;100.00
20013;BME280;10167;42.852;23.042;2023-01-31T05:20:36;94552.94;;;0.46;100.00
20013;BME280;10167;42.852;23.042;2023-01-31T05:23:07;94553.34;;;0.43;100.00
20013;BME280;10167;42.852;23.042;2023-01-31T05:25:37;94560.75;;;0.46;100.00
20013;BME280;10167;42.852;23.042;2023-01-31T05:28:08;94561.78;;;0.45;100.00
20013;BME280;10167;42.852;23.042;2023-01-31T05:30:38;94554.03;;;0.51;100.00
20013;BME280;10167;42.852;23.042;2023-01-31T05:33:08;94561.66;;;0.53;100.00
20013;BME280;10167;42.852;23.042;2023-01-31T05:35:37;94559.28;;;0.58;100.00
20013;BME280;10167;42.852;23.042;2023-01-31T05:38:08;94568.19;;;0.63;100.00
20013;BME280;10167;42.852;23.042;2023-01-31T05:40:37;94566.94;;;0.59;100.00
20013;BME280;10167;42.852;23.042;2023-01-31T05:43:08;94571.84;;;0.69;100.00
20013;BME280;10167;42.852;23.042;2023-01-31T05:45:37;94579.13;;;0.73;100.00
20013;BME280;10167;42.852;23.042;2023-01-31T05:48:06;94582.72;;;0.72;100.00
20013;BME280;10167;42.852;23.042;2023-01-31T05:50:35;94585.66;;;0.84;100.00
20013;BME280;10167;42.852;23.042;2023-01-31T05:53:10;94586.91;;;0.88;100.00
20013;BME280;10167;42.852;23.042;2023-01-31T05:55:39;94586.72;;;0.90;100.00
20013;BME280;10167;42.852;23.042;2023-01-31T05:58:11;94590.56;;;0.94;100.00
20013;BME280;10167;42.852;23.042;2023-01-31T06:00:40;94590.19;;;0.97;100.00
20013;BME280;10167;42.852;23.042;2023-01-31T06:03:09;94590.69;;;1.07;100.00
20013;BME280;10167;42.852;23.042;2023-01-31T06:05:38;94586.28;;;1.07;100.00
20013;BME280;10167;42.852;23.042;2023-01-31T06:08:09;94588.28;;;1.05;100.00
20013;BME280;10167;42.852;23.042;2023-01-31T06:10:39;94591.94;;;1.11;100.00
20013;BME280;10167;42.852;23.042;2023-01-31T06:13:08;94593.75;;;1.11;100.00
20013;BME280;10167;42.852;23.042;2023-01-31T06:15:43;94591.78;;;1.13;100.00
20013;BME280;10167;42.852;23.042;2023-01-31T06:18:13;94597.22;;;1.18;100.00
20013;BME280;10167;42.852;23.042;2023-01-31T06:20:42;94602.06;;;1.21;100.00
20013;BME280;10167;42.852;23.042;2023-01-31T06:23:11;94614.84;;;1.16;100.00
20013;BME280;10167;42.852;23.042;2023-01-31T06:25:40;94611.69;;;1.20;100.00
20013;BME280;10167;42.852;23.042;2023-01-31T06:28:10;94612.06;;;1.17;100.00
20013;BME280;10167;42.852;23.042;2023-01-31T06:30:39;94623.91;;;1.20;100.00
20013;BME280;10167;42.852;23.042;2023-01-31T06:33:10;94615.16;;;1.06;100.00
20013;BME280;10167;42.852;23.042;2023-01-31T06:35:40;94604.00;;;1.12;100.00
20013;BME280;10167;42.852;23.042;2023-01-31T06:38:09;94612.88;;;1.18;100.00
20013;BME280;10167;42.852;23.042;2023-01-31T06:40:40;94618.53;;;1.21;100.00
20013;BME280;10167;42.852;23.042;2023-01-31T06:43:09;94610.75;;;1.06;100.00
20013;BME280;10167;42.852;23.042;2023-01-31T06:45:41;94620.47;;;1.13;100.00
20013;BME280;10167;42.852;23.042;2023-01-31T06:48:12;94613.97;;;0.87;100.00
20013;BME280;10167;42.852;23.042;2023-01-31T06:50:41;94620.13;;;1.01;100.00
20013;BME280;10167;42.852;23.042;2023-01-31T06:53:11;94632.91;;;1.17;100.00
20013;BME280;10167;42.852;23.042;2023-01-31T06:55:40;94627.53;;;1.19;100.00
20013;BME280;10167;42.852;23.042;2023-01-31T06:58:09;94624.56;;;1.22;100.00
20013;BME280;10167;42.852;23.042;2023-01-31T07:00:39;94642.81;;;1.22;100.00
20013;BME280;10167;42.852;23.042;2023-01-31T07:03:08;94639.81;;;1.25;100.00
20013;BME280;10167;42.852;23.042;2023-01-31T07:05:39;94642.63;;;1.23;100.00
20013;BME280;10167;42.852;23.042;2023-01-31T07:08:09;94646.28;;;1.29;100.00
20013;BME280;10167;42.852;23.042;2023-01-31T07:10:38;94641.50;;;1.32;100.00
20013;BME280;10167;42.852;23.042;2023-01-31T07:13:08;94644.34;;;1.37;100.00
20013;BME280;10167;42.852;23.042;2023-01-31T07:15:37;94637.16;;;1.39;100.00
20013;BME280;10167;42.852;23.042;2023-01-31T07:18:06;94640.75;;;1.38;100.00
20013;BME280;10167;42.852;23.042;2023-01-31T07:20:35;94637.50;;;1.36;100.00
20013;BME280;10167;42.852;23.042;2023-01-31T07:23:08;94640.19;;;1.43;100.00
20013;BME280;10167;42.852;23.042;2023-01-31T07:25:41;94642.22;;;1.48;100.00
20013;BME280;10167;42.852;23.042;2023-01-31T07:28:12;94643.31;;;1.53;100.00
20013;BME280;10167;42.852;23.042;2023-01-31T07:30:41;94647.59;;;1.39;100.00
20013;BME280;10167;42.852;23.042;2023-01-31T07:33:11;94634.34;;;1.41;100.00
20013;BME280;10167;42.852;23.042;2023-01-31T07:35:41;94627.97;;;1.43;100.00
20013;BME280;10167;42.852;23.042;2023-01-31T07:38:12;94632.41;;;1.50;100.00
20013;BME280;10167;42.852;23.042;2023-01-31T07:40:42;94644.28;;;1.52;100.00
20013;BME280;10167;42.852;23.042;2023-01-31T07:43:11;94651.75;;;1.55;100.00
20013;BME280;10167;42.852;23.042;2023-01-31T07:45:40;94641.94;;;1.57;100.00
20013;BME280;10167;42.852;23.042;2023-01-31T07:48:09;94647.22;;;1.42;100.00
20013;BME280;10167;42.852;23.042;2023-01-31T07:50:38;94638.31;;;1.58;100.00
20013;BME280;10167;42.852;23.042;2023-01-31T07:53:07;94645.78;;;1.61;100.00
20013;BME280;10167;42.852;23.042;2023-01-31T07:55:38;94643.16;;;1.61;100.00
20013;BME280;10167;42.852;23.042;2023-01-31T07:58:08;94633.22;;;1.71;100.00
20013;BME280;10167;42.852;23.042;2023-01-31T08:00:37;94639.63;;;1.69;100.00
20013;BME280;10167;42.852;23.042;2023-01-31T08:03:23;94636.25;;;1.75;100.00
20013;BME280;10167;42.852;23.042;2023-01-31T08:06:06;94634.63;;;1.74;100.00
20013;BME280;10167;42.852;23.042;2023-01-31T08:08:36;94649.75;;;1.78;100.00
20013;BME280;10167;42.852;23.042;2023-01-31T08:11:07;94651.25;;;1.66;100.00
20013;BME280;10167;42.852;23.042;2023-01-31T08:13:36;94660.25;;;1.64;100.00
20013;BME280;10167;42.852;23.042;2023-01-31T08:16:07;94660.13;;;1.72;100.00
20013;BME280;10167;42.852;23.042;2023-01-31T08:18:37;94664.78;;;1.76;100.00
20013;BME280;10167;42.852;23.042;2023-01-31T08:21:07;94658.63;;;1.84;100.00
20013;BME280;10167;42.852;23.042;2023-01-31T08:23:38;94661.19;;;1.77;100.00
20013;BME280;10167;42.852;23.042;2023-01-31T08:26:11;94658.31;;;1.72;100.00
20013;BME280;10167;42.852;23.042;2023-01-31T08:28:41;94643.09;;;1.76;100.00
20013;BME280;10167;42.852;23.042;2023-01-31T08:31:13;94661.41;;;1.82;100.00
20013;BME280;10167;42.852;23.042;2023-01-31T08:33:44;94653.16;;;1.79;100.00
20013;BME280;10167;42.852;23.042;2023-01-31T08:36:16;94655.25;;;1.90;100.00
20013;BME280;10167;42.852;23.042;2023-01-31T08:38:47;94662.41;;;2.03;100.00
20013;BME280;10167;42.852;23.042;2023-01-31T08:41:22;94661.78;;;2.01;100.00
20013;BME280;10167;42.852;23.042;2023-01-31T08:43:51;94650.28;;;2.23;100.00
20013;BME280;10167;42.852;23.042;2023-01-31T08:46:25;94653.97;;;2.35;100.00
20013;BME280;10167;42.852;23.042;2023-01-31T08:48:57;94651.00;;;2.45;100.00
20013;BME280;10167;42.852;23.042;2023-01-31T08:51:26;94653.25;;;2.48;100.00
20013;BME280;10167;42.852;23.042;2023-01-31T08:53:56;94662.66;;;2.49;100.00
20013;BME280;10167;42.852;23.042;2023-01-31T08:56:27;94664.69;;;2.47;100.00
20013;BME280;10167;42.852;23.042;2023-01-31T08:58:57;94672.47;;;2.40;100.00
20013;BME280;10167;42.852;23.042;2023-01-31T09:01:26;94659.09;;;2.22;100.00
20013;BME280;10167;42.852;23.042;2023-01-31T09:03:56;94674.06;;;2.35;100.00
20013;BME280;10167;42.852;23.042;2023-01-31T09:06:26;94668.41;;;2.31;100.00
20013;BME280;10167;42.852;23.042;2023-01-31T09:08:57;94671.03;;;2.38;100.00
20013;BME280;10167;42.852;23.042;2023-01-31T09:11:30;94674.25;;;2.33;100.00
20013;BME280;10167;42.852;23.042;2023-01-31T09:13:59;94665.81;;;2.38;100.00
20013;BME280;10167;42.852;23.042;2023-01-31T09:16:29;94661.84;;;2.42;100.00
20013;BME280;10167;42.852;23.042;2023-01-31T09:18:58;94666.25;;;2.41;100.00
20013;BME280;10167;42.852;23.042;2023-01-31T09:21:27;94660.66;;;2.44;100.00
20013;BME280;10167;42.852;23.042;2023-01-31T09:23:59;94652.56;;;2.39;100.00
20013;BME280;10167;42.852;23.042;2023-01-31T09:26:31;94650.03;;;2.52;100.00
20013;BME280;10167;42.852;23.042;2023-01-31T09:29:00;94645.66;;;2.60;100.00
20013;BME280;10167;42.852;23.042;2023-01-31T09:31:30;94646.50;;;2.73;100.00
20013;BME280;10167;42.852;23.042;2023-01-31T09:34:00;94642.97;;;2.87;100.00
20013;BME280;10167;42.852;23.042;2023-01-31T09:36:29;94652.00;;;2.85;100.00
20013;BME280;10167;42.852;23.042;2023-01-31T09:38:59;94647.97;;;2.82;100.00
20013;BME280;10167;42.852;23.042;2023-01-31T09:41:32;94629.28;;;2.85;100.00
20013;BME280;10167;42.852;23.042;2023-01-31T09:44:08;94632.22;;;2.69;100.00
20013;BME280;10167;42.852;23.042;2023-01-31T09:46:41;94637.66;;;2.74;100.00
20013;BME280;10167;42.852;23.042;2023-01-31T09:49:17;94637.03;;;2.66;100.00
20013;BME280;10167;42.852;23.042;2023-01-31T09:51:53;94635.22;;;2.66;100.00
20013;BME280;10167;42.852;23.042;2023-01-31T09:54:27;94640.47;;;2.66;100.00
20013;BME280;10167;42.852;23.042;2023-01-31T09:57:07;94634.97;;;2.54;100.00
20013;BME280;10167;42.852;23.042;2023-01-31T09:59:47;94622.09;;;2.53;100.00
20013;BME280;10167;42.852;23.042;2023-01-31T10:02:33;94631.63;;;2.67;100.00
20013;BME280;10167;42.852;23.042;2023-01-31T10:05:15;94608.72;;;2.76;100.00
20013;BME280;10167;42.852;23.042;2023-01-31T10:07:55;94611.16;;;2.84;100.00
20013;BME280;10167;42.852;23.042;2023-01-31T10:10:34;94605.94;;;2.84;100.00
20013;BME280;10167;42.852;23.042;2023-01-31T10:13:16;94601.53;;;2.91;100.00
20013;BME280;10167;42.852;23.042;2023-01-31T10:15:49;94596.41;;;3.37;100.00
20013;BME280;10167;42.852;23.042;2023-01-31T10:18:24;94607.91;;;3.49;100.00
20013;BME280;10167;42.852;23.042;2023-01-31T10:20:56;94606.06;;;3.43;100.00
20013;BME280;10167;42.852;23.042;2023-01-31T10:23:32;94607.31;;;3.47;100.00
20013;BME280;10167;42.852;23.042;2023-01-31T10:26:09;94601.22;;;3.40;100.00
20013;BME280;10167;42.852;23.042;2023-01-31T10:28:48;94603.25;;;3.51;100.00
20013;BME280;10167;42.852;23.042;2023-01-31T10:31:25;94601.66;;;3.96;100.00
20013;BME280;10167;42.852;23.042;2023-01-31T10:33:59;94607.72;;;3.77;100.00
20013;BME280;10167;42.852;23.042;2023-01-31T10:36:35;94608.31;;;3.66;100.00
20013;BME280;10167;42.852;23.042;2023-01-31T10:39:13;94598.63;;;3.34;100.00
20013;BME280;10167;42.852;23.042;2023-01-31T10:42:02;94597.97;;;3.18;100.00
20013;BME280;10167;42.852;23.042;2023-01-31T10:44:42;94599.38;;;3.08;100.00
20013;BME280;10167;42.852;23.042;2023-01-31T10:47:13;94596.69;;;2.95;100.00
20013;BME280;10167;42.852;23.042;2023-01-31T10:49:45;94593.50;;;2.92;100.00
20013;BME280;10167;42.852;23.042;2023-01-31T10:52:23;94599.94;;;2.90;100.00
20013;BME280;10167;42.852;23.042;2023-01-31T10:55:04;94589.84;;;2.87;100.00
20013;BME280;10167;42.852;23.042;2023-01-31T10:57:36;94589.28;;;2.91;100.00
20013;BME280;10167;42.852;23.042;2023-01-31T11:00:13;94585.06;;;2.97;100.00
20013;BME280;10167;42.852;23.042;2023-01-31T11:02:46;94583.84;;;3.00;100.00
20013;BME280;10167;42.852;23.042;2023-01-31T11:05:18;94591.09;;;2.91;100.00
20013;BME280;10167;42.852;23.042;2023-01-31T11:07:49;94589.50;;;3.03;100.00
20013;BME280;10167;42.852;23.042;2023-01-31T11:10:25;94584.28;;;3.03;100.00
20013;BME280;10167;42.852;23.042;2023-01-31T11:12:55;94598.78;;;3.12;100.00
20013;BME280;10167;42.852;23.042;2023-01-31T11:15:28;94591.50;;;3.01;100.00
20013;BME280;10167;42.852;23.042;2023-01-31T11:18:04;94582.44;;;2.90;100.00
20013;BME280;10167;42.852;23.042;2023-01-31T11:20:36;94584.84;;;2.92;100.00
20013;BME280;10167;42.852;23.042;2023-01-31T11:23:13;94582.25;;;2.99;100.00
20013;BME280;10167;42.852;23.042;2023-01-31T11:25:47;94587.66;;;2.90;100.00
20013;BME280;10167;42.852;23.042;2023-01-31T11:28:21;94590.28;;;2.97;100.00
20013;BME280;10167;42.852;23.042;2023-01-31T11:30:53;94590.09;;;2.92;100.00
20013;BME280;10167;42.852;23.042;2023-01-31T11:33:40;94578.97;;;2.83;100.00
20013;BME280;10167;42.852;23.042;2023-01-31T11:36:12;94589.84;;;2.80;100.00
20013;BME280;10167;42.852;23.042;2023-01-31T11:38:42;94579.72;;;2.64;100.00
20013;BME280;10167;42.852;23.042;2023-01-31T11:41:27;94592.59;;;2.72;100.00
20013;BME280;10167;42.852;23.042;2023-01-31T11:44:14;94576.00;;;3.00;100.00
20013;BME280;10167;42.852;23.042;2023-01-31T11:46:52;94592.34;;;3.21;100.00
20013;BME280;10167;42.852;23.042;2023-01-31T11:49:38;94587.97;;;3.48;100.00
20013;BME280;10167;42.852;23.042;2023-01-31T11:52:13;94575.28;;;3.65;100.00
20013;BME280;10167;42.852;23.042;2023-01-31T11:54:55;94578.69;;;3.85;100.00
20013;BME280;10167;42.852;23.042;2023-01-31T11:57:29;94583.50;;;4.01;100.00
20013;BME280;10167;42.852;23.042;2023-01-31T12:00:01;94574.03;;;4.00;100.00
20013;BME280;10167;42.852;23.042;2023-01-31T12:02:38;94584.13;;;3.97;100.00
20013;BME280;10167;42.852;23.042;2023-01-31T12:05:10;94583.75;;;3.80;100.00
20013;BME280;10167;42.852;23.042;2023-01-31T12:07:42;94583.13;;;3.85;100.00
20013;BME280;10167;42.852;23.042;2023-01-31T12:12:58;94570.84;;;3.92;100.00
20013;BME280;10167;42.852;23.042;2023-01-31T12:15:47;94574.66;;;4.03;100.00
20013;BME280;10167;42.852;23.042;2023-01-31T12:18:28;94577.66;;;3.99;100.00
20013;BME280;10167;42.852;23.042;2023-01-31T12:21:02;94581.13;;;3.93;100.00
20013;BME280;10167;42.852;23.042;2023-01-31T12:23:37;94580.31;;;3.93;100.00
20013;BME280;10167;42.852;23.042;2023-01-31T12:26:11;94572.44;;;3.93;100.00
20013;BME280;10167;42.852;23.042;2023-01-31T12:28:57;94566.38;;;3.99;100.00
20013;BME280;10167;42.852;23.042;2023-01-31T12:31:46;94572.66;;;3.91;100.00
20013;BME280;10167;42.852;23.042;2023-01-31T12:34:29;94567.19;;;3.99;100.00
20013;BME280;10167;42.852;23.042;2023-01-31T12:37:13;94581.72;;;3.82;100.00
20013;BME280;10167;42.852;23.042;2023-01-31T12:40:00;94572.47;;;3.47;100.00
20013;BME280;10167;42.852;23.042;2023-01-31T12:42:56;94573.06;;;3.62;100.00
20013;BME280;10167;42.852;23.042;2023-01-31T12:45:57;94582.31;;;3.45;100.00
20013;BME280;10167;42.852;23.042;2023-01-31T12:48:43;94584.75;;;3.66;100.00
20013;BME280;10167;42.852;23.042;2023-01-31T12:51:35;94573.88;;;3.62;100.00
20013;BME280;10167;42.852;23.042;2023-01-31T12:54:24;94584.53;;;3.74;100.00
20013;BME280;10167;42.852;23.042;2023-01-31T12:57:20;94582.13;;;3.92;100.00
20013;BME280;10167;42.852;23.042;2023-01-31T12:59:57;94589.78;;;3.87;100.00
20013;BME280;10167;42.852;23.042;2023-01-31T13:02:40;94586.97;;;3.82;100.00
20013;BME280;10167;42.852;23.042;2023-01-31T13:05:21;94586.94;;;3.89;100.00
20013;BME280;10167;42.852;23.042;2023-01-31T13:08:00;94587.97;;;3.94;100.00
20013;BME280;10167;42.852;23.042;2023-01-31T13:10:35;94582.09;;;3.99;100.00
20013;BME280;10167;42.852;23.042;2023-01-31T13:13:11;94588.75;;;4.01;100.00
20013;BME280;10167;42.852;23.042;2023-01-31T13:15:48;94582.13;;;3.92;100.00
20013;BME280;10167;42.852;23.042;2023-01-31T13:18:20;94581.72;;;3.82;100.00
20013;BME280;10167;42.852;23.042;2023-01-31T13:20:54;94583.94;;;3.85;100.00
20013;BME280;10167;42.852;23.042;2023-01-31T13:23:29;94584.34;;;3.89;100.00
20013;BME280;10167;42.852;23.042;2023-01-31T13:26:06;94578.06;;;3.96;100.00
20013;BME280;10167;42.852;23.042;2023-01-31T13:28:40;94581.28;;;3.98;100.00
20013;BME280;10167;42.852;23.042;2023-01-31T13:31:18;94580.72;;;3.83;100.00
20013;BME280;10167;42.852;23.042;2023-01-31T13:33:52;94580.72;;;3.70;100.00